createdAt,value
2018-12-14T00:01:20.487Z,83.65
2018-12-14T00:03:49.989Z,83.72
2018-12-14T00:06:19.521Z,84.15
2018-12-14T00:08:48.957Z,84.31
2018-12-14T00:11:17.821Z,84.56
2018-12-14T00:13:46.548Z,84.10
2018-12-14T00:16:16.680Z,83.68
2018-12-14T00:18:45.438Z,84.23
2018-12-14T00:21:14.682Z,84.47
2018-12-14T00:23:43.503Z,84.33
2018-12-14T00:26:12.294Z,83.78
2018-12-14T00:28:41.014Z,84.09
2018-12-14T00:31:09.728Z,84.06
2018-12-14T00:33:38.715Z,83.90
2018-12-14T00:36:07.489Z,83.25
2018-12-14T00:38:37.003Z,83.61
2018-12-14T00:41:05.857Z,83.75
2018-12-14T00:43:35.773Z,83.38
2018-12-14T00:46:05.472Z,83.87
2018-12-14T00:48:34.315Z,83.36
2018-12-14T00:51:04.063Z,82.75
2018-12-14T00:53:32.890Z,83.45
2018-12-14T00:56:01.940Z,83.43
2018-12-14T00:58:31.901Z,83.10
2018-12-14T01:01:02.314Z,83.07
2018-12-14T01:03:31.701Z,83.54
2018-12-14T01:06:02.296Z,83.27
2018-12-14T01:08:31.863Z,83.35
2018-12-14T01:11:00.744Z,83.45
2018-12-14T01:13:29.396Z,83.21
2018-12-14T01:15:58.930Z,83.41
2018-12-14T01:18:28.236Z,83.29
2018-12-14T01:20:57.216Z,83.23
2018-12-14T01:23:25.923Z,82.68
2018-12-14T01:25:54.648Z,82.98
2018-12-14T01:28:23.362Z,83.00
2018-12-14T01:30:53.646Z,83.22
2018-12-14T01:33:22.492Z,83.67
2018-12-14T01:35:51.252Z,83.27
2018-12-14T01:38:50.871Z,83.41
2018-12-14T01:41:19.868Z,83.80
2018-12-14T01:43:49.795Z,83.13
2018-12-14T01:46:18.608Z,83.83
2018-12-14T01:48:47.350Z,83.22
2018-12-14T01:51:17.901Z,83.51
2018-12-14T01:53:46.685Z,84.35
2018-12-14T01:56:15.415Z,83.39
2018-12-14T01:58:44.935Z,83.76
2018-12-14T02:01:13.728Z,83.54
2018-12-14T02:03:43.431Z,83.71
2018-12-14T02:06:12.646Z,83.74
2018-12-14T02:08:42.226Z,84.03
2018-12-14T02:11:11.014Z,83.57
2018-12-14T02:13:39.873Z,84.26
2018-12-14T02:16:09.441Z,83.59
2018-12-14T02:18:38.185Z,84.05
2018-12-14T02:21:06.897Z,83.72
2018-12-14T02:23:35.649Z,83.72
2018-12-14T02:26:05.549Z,84.41
2018-12-14T02:28:34.462Z,84.26
2018-12-14T02:31:19.086Z,83.96
2018-12-14T02:33:47.845Z,83.51
2018-12-14T02:36:16.623Z,84.14
2018-12-14T02:38:45.404Z,83.70
2018-12-14T02:41:14.206Z,83.50
2018-12-14T02:43:43.606Z,83.46
2018-12-14T02:46:12.542Z,83.90
2018-12-14T02:48:41.416Z,83.57
2018-12-14T02:51:11.154Z,83.73
2018-12-14T02:53:39.999Z,84.06
2018-12-14T02:56:08.788Z,83.70
2018-12-14T02:58:39.370Z,83.54
2018-12-14T03:01:08.251Z,83.41
2018-12-14T03:03:37.976Z,83.76
2018-12-14T03:06:07.555Z,83.20
2018-12-14T03:08:38.626Z,83.64
2018-12-14T03:11:07.406Z,83.53
2018-12-14T03:13:36.896Z,83.60
2018-12-14T03:16:05.672Z,83.94
2018-12-14T03:18:35.054Z,83.68
2018-12-14T03:21:04.266Z,83.78
2018-12-14T03:23:34.278Z,83.77
2018-12-14T03:26:05.226Z,83.97
2018-12-14T03:28:36.000Z,83.99
2018-12-14T03:31:05.852Z,83.70
2018-12-14T03:33:36.095Z,83.56
2018-12-14T03:36:05.850Z,83.70
2018-12-14T03:38:35.946Z,83.98
2018-12-14T03:41:04.921Z,83.79
2018-12-14T03:43:34.698Z,83.94
2018-12-14T03:46:04.944Z,83.78
2018-12-14T03:48:36.734Z,84.27
2018-12-14T03:51:06.226Z,84.10
2018-12-14T03:53:34.972Z,83.50
2018-12-14T03:56:03.864Z,83.94
2018-12-14T04:01:25.395Z,83.70
2018-12-14T04:03:54.088Z,83.73
2018-12-14T04:06:22.863Z,83.74
2018-12-14T04:08:53.052Z,84.47
2018-12-14T04:11:22.829Z,83.80
2018-12-14T04:13:52.475Z,84.58
2018-12-14T04:16:21.468Z,83.47
2018-12-14T04:21:39.738Z,84.72
2018-12-14T04:24:08.538Z,83.87
2018-12-14T04:26:38.298Z,83.86
2018-12-14T04:29:07.181Z,84.27
2018-12-14T04:31:36.922Z,84.34
2018-12-14T04:34:05.869Z,84.06
2018-12-14T04:36:34.893Z,83.57
2018-12-14T04:39:06.585Z,84.30
2018-12-14T04:41:35.411Z,83.45
2018-12-14T04:44:04.391Z,83.46
2018-12-14T04:46:33.942Z,84.14
2018-12-14T04:49:04.526Z,83.83
2018-12-14T04:51:34.486Z,83.97
2018-12-14T04:54:10.268Z,83.33
2018-12-14T04:56:39.558Z,83.62
2018-12-14T04:59:11.587Z,84.11
2018-12-14T05:01:41.231Z,83.89
2018-12-14T05:04:12.792Z,84.14
2018-12-14T05:06:42.524Z,84.36
2018-12-14T05:09:12.241Z,84.47
2018-12-14T05:11:41.359Z,84.42
2018-12-14T05:14:10.220Z,83.91
2018-12-14T05:16:39.352Z,84.19
2018-12-14T05:19:08.859Z,83.49
2018-12-14T05:21:37.785Z,83.55
2018-12-14T05:24:06.814Z,84.34
2018-12-14T05:26:36.330Z,83.51
2018-12-14T05:29:05.379Z,84.35
2018-12-14T05:31:35.173Z,83.77
2018-12-14T05:34:04.201Z,84.45
2018-12-14T05:36:33.204Z,83.85
2018-12-14T05:39:05.609Z,84.51
2018-12-14T05:41:34.525Z,83.71
2018-12-14T05:44:04.280Z,83.94
2018-12-14T05:46:34.487Z,83.91
2018-12-14T05:49:04.230Z,84.06
2018-12-14T05:51:34.058Z,84.25
2018-12-14T05:54:04.460Z,83.93
2018-12-14T05:56:33.427Z,83.57
2018-12-14T05:59:03.866Z,83.88
2018-12-14T06:01:33.990Z,83.63
2018-12-14T06:04:02.940Z,84.08
2018-12-14T06:06:32.630Z,83.82
2018-12-14T06:09:02.847Z,84.10
2018-12-14T06:11:32.641Z,84.59
2018-12-14T06:14:01.776Z,84.04
2018-12-14T06:16:30.958Z,84.37
2018-12-14T06:19:02.412Z,83.97
2018-12-14T06:21:31.709Z,84.45
2018-12-14T06:24:01.010Z,83.90
2018-12-14T06:26:30.791Z,83.83
2018-12-14T06:29:00.353Z,84.03
2018-12-14T06:31:30.405Z,83.99
2018-12-14T06:34:00.952Z,84.25
2018-12-14T06:36:30.068Z,84.04
2018-12-14T06:39:04.185Z,84.12
2018-12-14T06:41:33.378Z,84.87
2018-12-14T06:44:02.533Z,84.38
2018-12-14T06:46:32.927Z,84.42
2018-12-14T06:49:03.795Z,84.69
2018-12-14T06:51:34.559Z,85.06
2018-12-14T06:54:04.005Z,85.02
2018-12-14T06:56:34.067Z,84.74
2018-12-14T06:59:06.051Z,84.83
2018-12-14T07:01:35.896Z,84.67
2018-12-14T07:04:06.789Z,84.79
2018-12-14T07:06:36.668Z,85.62
2018-12-14T07:09:10.322Z,85.59
2018-12-14T07:11:39.382Z,84.65
2018-12-14T07:14:08.383Z,84.32
2018-12-14T07:16:37.648Z,84.64
2018-12-14T07:19:09.236Z,84.20
2018-12-14T07:21:38.248Z,84.30
2018-12-14T07:24:08.712Z,84.61
2018-12-14T07:26:38.853Z,84.76
2018-12-14T07:29:14.829Z,84.21
2018-12-14T07:31:44.668Z,84.53
2018-12-14T07:34:13.876Z,83.84
2018-12-14T07:36:42.894Z,83.97
2018-12-14T07:39:14.282Z,83.52
2018-12-14T07:41:43.309Z,84.37
2018-12-14T07:44:18.058Z,83.70
2018-12-14T07:46:48.263Z,84.02
2018-12-14T07:49:17.231Z,83.77
2018-12-14T07:51:46.890Z,83.76
2018-12-14T07:54:16.496Z,83.42
2018-12-14T07:59:33.354Z,83.40
2018-12-14T08:02:03.277Z,83.02
2018-12-14T08:04:32.904Z,83.17
2018-12-14T08:07:02.214Z,82.92
2018-12-14T08:09:32.495Z,82.43
2018-12-14T08:12:01.536Z,82.69
2018-12-14T08:14:30.512Z,83.11
2018-12-14T08:16:59.585Z,83.02
2018-12-14T08:19:28.594Z,82.97
2018-12-14T08:21:57.737Z,82.54
2018-12-14T08:24:26.692Z,82.78
2018-12-14T08:26:56.247Z,83.08
2018-12-14T08:29:25.288Z,83.13
2018-12-14T08:31:55.171Z,83.08
2018-12-14T08:34:24.077Z,83.07
2018-12-14T08:36:52.985Z,83.41
2018-12-14T08:39:22.698Z,83.20
2018-12-14T08:41:52.368Z,83.35
2018-12-14T08:44:22.520Z,83.56
2018-12-14T08:46:52.289Z,83.10
2018-12-14T08:49:22.330Z,83.59
2018-12-14T08:51:51.937Z,83.56
2018-12-14T08:54:21.134Z,83.66
2018-12-14T08:56:50.169Z,83.90
2018-12-14T08:59:20.736Z,83.33
2018-12-14T09:01:51.198Z,83.74
2018-12-14T09:04:20.529Z,83.49
2018-12-14T09:06:49.571Z,83.44
2018-12-14T09:09:20.576Z,83.15
2018-12-14T09:11:49.859Z,82.59
2018-12-14T09:14:18.816Z,82.73
2018-12-14T09:16:47.661Z,82.74
2018-12-14T09:19:16.677Z,82.05
2018-12-14T09:21:45.570Z,81.79
2018-12-14T09:24:14.672Z,82.43
2018-12-14T09:26:44.199Z,81.67
2018-12-14T09:29:13.180Z,81.40
2018-12-14T09:31:42.981Z,81.81
2018-12-14T09:34:11.853Z,81.44
2018-12-14T09:36:40.842Z,81.01
2018-12-14T09:39:10.485Z,81.51
2018-12-14T09:41:39.440Z,81.83
2018-12-14T09:44:08.336Z,82.19
2018-12-14T09:46:37.817Z,82.24
2018-12-14T09:49:06.926Z,82.44
2018-12-14T09:51:36.876Z,82.66
2018-12-14T09:54:05.897Z,82.09
2018-12-14T09:56:35.565Z,82.86
2018-12-14T09:59:05.135Z,82.38
2018-12-14T10:01:34.837Z,82.52
2018-12-14T10:04:04.381Z,81.91
2018-12-14T10:06:33.341Z,82.32
2018-12-14T10:09:03.495Z,82.00
2018-12-14T10:11:32.425Z,81.65
2018-12-14T10:14:01.390Z,81.29
2018-12-14T10:16:30.479Z,81.77
2018-12-14T10:19:01.245Z,82.19
2018-12-14T10:21:30.351Z,81.60
2018-12-14T10:23:59.292Z,81.76
2018-12-14T10:26:29.103Z,82.37
2018-12-14T10:28:58.765Z,81.91
2018-12-14T10:31:28.543Z,81.69
2018-12-14T10:33:57.433Z,81.30
2018-12-14T10:36:32.322Z,80.85
2018-12-14T10:39:04.361Z,80.81
2018-12-14T10:41:33.281Z,79.76
2018-12-14T10:44:07.375Z,79.61
2018-12-14T10:46:34.815Z,79.06
2018-12-14T10:49:04.286Z,78.91
2018-12-14T10:51:38.779Z,78.78
2018-12-14T10:54:08.745Z,78.61
2018-12-14T10:56:37.493Z,78.64
2018-12-14T10:59:07.049Z,78.43
2018-12-14T11:01:41.790Z,79.00
2018-12-14T11:04:10.624Z,78.40
2018-12-14T11:06:39.441Z,78.47
2018-12-14T11:09:09.223Z,78.30
2018-12-14T11:11:37.983Z,78.64
2018-12-14T11:14:06.945Z,78.77
2018-12-14T11:16:36.510Z,78.05
2018-12-14T11:19:05.352Z,78.19
2018-12-14T11:21:34.946Z,78.35
2018-12-14T11:24:04.288Z,78.39
2018-12-14T11:26:33.805Z,78.58
2018-12-14T11:29:02.666Z,78.78
2018-12-14T11:31:32.154Z,78.44
2018-12-14T11:34:01.655Z,78.73
2018-12-14T11:36:30.408Z,78.51
2018-12-14T11:38:59.827Z,78.46
2018-12-14T11:41:28.726Z,79.13
2018-12-14T11:43:57.440Z,79.15
2018-12-14T11:46:27.132Z,78.83
2018-12-14T11:48:55.843Z,78.47
2018-12-14T11:51:27.145Z,78.02
2018-12-14T11:53:56.025Z,77.52
2018-12-14T11:56:24.942Z,77.49
2018-12-14T11:58:54.452Z,77.30
2018-12-14T12:01:24.340Z,77.57
2018-12-14T12:03:54.075Z,77.57
2018-12-14T12:06:23.461Z,77.49
2018-12-14T12:08:53.710Z,77.87
2018-12-14T12:11:22.983Z,78.56
2018-12-14T12:13:52.557Z,78.47
2018-12-14T12:16:23.193Z,78.11
2018-12-14T12:18:52.770Z,78.23
2018-12-14T12:21:22.183Z,78.71
2018-12-14T12:23:55.207Z,78.74
2018-12-14T12:26:24.454Z,78.90
2018-12-14T12:28:53.803Z,79.60
2018-12-14T12:31:25.022Z,78.93
2018-12-14T12:33:54.334Z,79.64
2018-12-14T12:36:26.478Z,79.06
2018-12-14T12:38:56.322Z,79.08
2018-12-14T12:41:25.461Z,78.98
2018-12-14T12:43:54.670Z,79.44
2018-12-14T12:46:24.994Z,79.34
2018-12-14T12:48:54.687Z,79.27
2018-12-14T12:51:25.038Z,79.08
2018-12-14T12:53:54.348Z,79.57
2018-12-14T12:56:32.073Z,80.04
2018-12-14T12:59:02.121Z,79.94
2018-12-14T13:01:31.999Z,79.76
2018-12-14T13:04:01.296Z,79.85
2018-12-14T13:06:31.220Z,80.55
2018-12-14T13:09:00.909Z,79.88
2018-12-14T13:11:31.018Z,79.68
2018-12-14T13:14:00.324Z,80.12
2018-12-14T13:16:29.594Z,79.55
2018-12-14T13:18:59.047Z,79.65
2018-12-14T13:21:28.475Z,78.91
2018-12-14T13:23:57.511Z,78.29
2018-12-14T13:26:27.226Z,78.51
2018-12-14T13:28:56.224Z,78.81
2018-12-14T13:31:25.961Z,79.10
2018-12-14T13:33:55.261Z,79.23
2018-12-14T13:36:25.160Z,79.43
2018-12-14T13:38:54.940Z,79.44
2018-12-14T13:41:24.134Z,78.94
2018-12-14T13:43:54.464Z,78.95
2018-12-14T13:46:25.830Z,79.55
2018-12-14T13:49:02.548Z,79.87
2018-12-14T13:51:28.998Z,80.93
2018-12-14T13:53:58.315Z,80.87
2018-12-14T13:56:32.581Z,81.45
2018-12-14T13:59:03.398Z,80.97
2018-12-14T14:01:35.317Z,81.64
2018-12-14T14:04:06.200Z,81.60
2018-12-14T14:06:36.562Z,82.26
2018-12-14T14:09:21.199Z,81.43
2018-12-14T14:11:51.060Z,82.32
2018-12-14T14:14:20.666Z,81.65
2018-12-14T14:16:50.986Z,82.37
2018-12-14T14:19:21.016Z,81.69
2018-12-14T14:21:55.940Z,81.78
2018-12-14T14:24:25.368Z,82.16
2018-12-14T14:26:56.001Z,82.08
2018-12-14T14:29:25.155Z,82.05
2018-12-14T14:31:54.941Z,82.50
2018-12-14T14:34:24.313Z,82.54
2018-12-14T14:39:42.065Z,82.05
2018-12-14T14:42:11.496Z,82.37
2018-12-14T14:44:43.102Z,82.26
2018-12-14T14:47:12.400Z,82.54
2018-12-14T14:49:42.853Z,82.81
2018-12-14T14:52:16.893Z,82.87
2018-12-14T14:54:47.449Z,82.75
2018-12-14T14:57:16.561Z,82.99
2018-12-14T14:59:46.218Z,82.52
2018-12-14T15:02:17.404Z,82.45
2018-12-14T15:04:47.467Z,82.05
2018-12-14T15:07:16.869Z,82.05
2018-12-14T15:09:46.684Z,82.04
2018-12-14T15:12:16.333Z,82.48
2018-12-14T15:14:46.453Z,82.42
2018-12-14T15:17:20.769Z,82.42
2018-12-14T15:19:49.785Z,82.81
2018-12-14T15:22:19.116Z,82.99
2018-12-14T15:24:48.705Z,82.68
2018-12-14T15:27:19.639Z,83.00
2018-12-14T15:29:48.806Z,82.98
2018-12-14T15:32:19.442Z,82.90
2018-12-14T15:34:48.705Z,83.68
2018-12-14T15:37:19.224Z,83.22
2018-12-14T15:39:48.511Z,83.74
2018-12-14T15:42:18.159Z,83.37
2018-12-14T15:44:48.470Z,83.70
2018-12-14T15:47:17.771Z,83.76
2018-12-14T15:49:47.250Z,83.07
2018-12-14T15:52:17.187Z,83.25
2018-12-14T15:54:46.348Z,82.84
2018-12-14T15:57:15.486Z,83.36
2018-12-14T15:59:45.623Z,82.59
2018-12-14T16:02:16.652Z,82.61
2018-12-14T16:04:46.288Z,82.49
2018-12-14T16:07:15.866Z,82.93
2018-12-14T16:09:45.919Z,83.14
2018-12-14T16:12:15.189Z,83.02
2018-12-14T16:14:44.165Z,82.87
2018-12-14T16:17:13.450Z,82.89
2018-12-14T16:19:47.415Z,83.17
2018-12-14T16:22:16.401Z,82.25
2018-12-14T16:24:45.441Z,82.12
2018-12-14T16:27:16.446Z,82.83
2018-12-14T16:29:45.630Z,82.90
2018-12-14T16:32:15.470Z,82.85
2018-12-14T16:34:44.606Z,82.47
2018-12-14T16:37:14.677Z,83.77
2018-12-14T16:39:45.092Z,83.25
2018-12-14T16:42:14.093Z,83.49
2018-12-14T16:44:43.641Z,83.16
2018-12-14T16:47:12.726Z,82.57
2018-12-14T16:49:41.742Z,83.01
2018-12-14T16:52:14.447Z,82.71
2018-12-14T16:54:43.385Z,82.63
2018-12-14T16:57:13.015Z,83.19
2018-12-14T16:59:42.621Z,83.05
2018-12-14T17:02:14.391Z,83.51
2018-12-14T17:04:44.515Z,83.41
2018-12-14T17:07:19.754Z,83.07
2018-12-14T17:09:49.325Z,83.51
2018-12-14T17:12:18.586Z,83.78
2018-12-14T17:14:47.653Z,83.42
2018-12-14T17:17:16.715Z,83.70
2018-12-14T17:19:45.756Z,83.99
2018-12-14T17:22:19.436Z,83.92
2018-12-14T17:24:48.532Z,84.19
2018-12-14T17:27:18.458Z,84.05
2018-12-14T17:29:47.682Z,83.80
2018-12-14T17:32:17.576Z,84.17
2018-12-14T17:34:46.635Z,84.53
2018-12-14T17:37:17.915Z,84.48
2018-12-14T17:39:46.980Z,84.36
2018-12-14T17:42:16.094Z,84.21
2018-12-14T17:44:46.137Z,83.97
2018-12-14T17:47:16.271Z,83.30
2018-12-14T17:49:45.131Z,83.63
2018-12-14T17:52:14.720Z,83.07
2018-12-14T17:54:43.714Z,83.13
2018-12-14T17:57:13.628Z,83.72
2018-12-14T17:59:44.525Z,84.16
2018-12-14T18:02:19.371Z,83.50
2018-12-14T18:04:49.658Z,83.53
2018-12-14T18:07:18.652Z,83.71
2018-12-14T18:09:48.211Z,83.86
2018-12-14T18:12:17.285Z,83.09
2018-12-14T18:14:46.322Z,83.19
2018-12-14T18:17:15.726Z,83.13
2018-12-14T18:19:44.737Z,83.39
2018-12-14T18:22:14.725Z,83.82
2018-12-14T18:24:43.815Z,83.58
2018-12-14T18:27:13.715Z,83.48
2018-12-14T18:29:43.399Z,84.42
2018-12-14T18:32:15.286Z,84.47
2018-12-14T18:34:45.297Z,84.58
2018-12-14T18:37:15.585Z,83.85
2018-12-14T18:39:45.669Z,84.58
2018-12-14T18:42:16.734Z,84.01
2018-12-14T18:44:47.802Z,84.24
2018-12-14T18:47:17.209Z,84.08
2018-12-14T18:49:46.461Z,84.65
2018-12-14T18:52:16.449Z,84.18
2018-12-14T18:54:45.318Z,84.13
2018-12-14T18:57:14.496Z,83.72
2018-12-14T18:59:44.041Z,83.89
2018-12-14T19:02:14.055Z,82.85
2018-12-14T19:04:43.636Z,83.58
2018-12-14T19:07:12.892Z,83.15
2018-12-14T19:09:42.498Z,83.52
2018-12-14T19:12:11.470Z,82.75
2018-12-14T19:14:40.327Z,82.61
2018-12-14T19:17:09.219Z,82.84
2018-12-14T19:19:38.289Z,83.41
2018-12-14T19:22:07.618Z,83.76
2018-12-14T19:24:37.655Z,83.34
2018-12-14T19:27:07.826Z,82.78
2018-12-14T19:29:36.828Z,82.96
2018-12-14T19:32:06.740Z,83.12
2018-12-14T19:34:36.518Z,83.14
2018-12-14T19:37:06.099Z,83.27
2018-12-14T19:39:36.368Z,83.43
2018-12-14T19:42:06.028Z,84.10
2018-12-14T19:44:36.374Z,83.90
2018-12-14T19:47:06.884Z,83.84
2018-12-14T19:49:36.358Z,83.90
2018-12-14T19:52:06.449Z,83.30
2018-12-14T19:54:36.027Z,83.92
2018-12-14T19:57:06.434Z,83.95
2018-12-14T19:59:36.273Z,83.87
2018-12-14T20:02:06.352Z,83.52
2018-12-14T20:04:36.287Z,83.64
2018-12-14T20:07:05.603Z,82.89
2018-12-14T20:09:37.164Z,83.20
2018-12-14T20:12:06.200Z,82.97
2018-12-14T20:14:35.360Z,83.06
2018-12-14T20:17:04.428Z,83.60
2018-12-14T20:19:33.613Z,83.45
2018-12-14T20:22:02.665Z,83.19
2018-12-14T20:24:31.851Z,83.47
2018-12-14T20:27:01.466Z,83.11
2018-12-14T20:29:30.407Z,83.02
2018-12-14T20:32:02.180Z,82.56
2018-12-14T20:34:31.324Z,82.74
2018-12-14T20:37:00.376Z,82.24
2018-12-14T20:39:29.912Z,82.53
2018-12-14T20:41:59.093Z,82.14
2018-12-14T20:44:28.248Z,82.23
2018-12-14T20:46:57.949Z,82.58
2018-12-14T20:49:27.457Z,81.85
2018-12-14T20:51:57.457Z,82.21
2018-12-14T20:54:26.471Z,82.43
2018-12-14T20:56:56.058Z,83.12
2018-12-14T20:59:26.230Z,83.53
2018-12-14T21:01:56.241Z,83.56
2018-12-14T21:04:25.976Z,83.14
2018-12-14T21:06:56.295Z,84.12
2018-12-14T21:12:15.424Z,84.37
2018-12-14T21:14:50.998Z,84.04
2018-12-14T21:17:19.632Z,84.25
2018-12-14T21:19:49.255Z,84.28
2018-12-14T21:22:19.600Z,84.11
2018-12-14T21:24:48.628Z,84.13
2018-12-14T21:27:20.576Z,84.30
2018-12-14T21:29:50.191Z,84.22
2018-12-14T21:32:20.000Z,83.52
2018-12-14T21:34:49.171Z,83.84
2018-12-14T21:37:19.206Z,83.70
2018-12-14T21:39:48.219Z,83.76
2018-12-14T21:42:17.423Z,83.72
2018-12-14T21:44:47.324Z,83.60
2018-12-14T21:47:16.440Z,83.57
2018-12-14T21:49:45.427Z,83.23
2018-12-14T21:52:14.940Z,83.67
2018-12-14T21:54:44.407Z,82.91
2018-12-14T21:57:13.399Z,83.14
2018-12-14T21:59:43.026Z,82.97
2018-12-14T22:02:12.571Z,83.89
2018-12-14T22:04:42.159Z,83.24
2018-12-14T22:07:11.052Z,83.02
2018-12-14T22:09:40.900Z,83.13
2018-12-14T22:12:09.930Z,82.45
2018-12-14T22:14:39.121Z,82.55
2018-12-14T22:17:08.383Z,83.31
2018-12-14T22:19:37.572Z,82.45
2018-12-14T22:22:06.829Z,83.06
2018-12-14T22:24:37.677Z,83.14
2018-12-14T22:27:07.814Z,83.09
2018-12-14T22:29:37.004Z,83.53
2018-12-14T22:32:07.056Z,83.68
2018-12-14T22:34:36.232Z,83.80
2018-12-14T22:37:05.516Z,83.74
2018-12-14T22:39:35.520Z,83.75
2018-12-14T22:42:06.030Z,83.42
2018-12-14T22:44:35.508Z,84.08
2018-12-14T22:47:06.633Z,83.88
2018-12-14T22:49:37.360Z,84.29
2018-12-14T22:52:07.179Z,83.88
2018-12-14T22:54:36.362Z,83.72
2018-12-14T22:57:07.216Z,83.65
2018-12-14T22:59:36.924Z,83.84
2018-12-14T23:02:06.731Z,83.37
2018-12-14T23:04:36.538Z,82.96
2018-12-14T23:07:05.644Z,83.35
2018-12-14T23:09:35.742Z,82.14
2018-12-14T23:12:05.119Z,83.03
2018-12-14T23:14:34.359Z,82.33
2018-12-14T23:17:05.206Z,82.91
2018-12-14T23:19:37.729Z,82.93
2018-12-14T23:22:08.491Z,83.44
2018-12-14T23:24:39.134Z,83.15
2018-12-14T23:27:08.806Z,82.74
2018-12-14T23:29:37.786Z,83.27
2018-12-14T23:32:07.854Z,83.33
2018-12-14T23:34:37.093Z,82.82
2018-12-14T23:37:06.542Z,83.41
2018-12-14T23:39:37.915Z,83.71
2018-12-14T23:42:10.102Z,83.42
2018-12-14T23:44:40.696Z,83.10
2018-12-14T23:47:10.325Z,83.79
2018-12-14T23:49:39.618Z,83.07
2018-12-14T23:52:09.293Z,83.28
2018-12-14T23:54:38.700Z,83.73
2018-12-14T23:57:12.216Z,83.86
2018-12-14T23:59:41.281Z,84.34
